sensor_id;sensor_type;location;lat;lon;timestamp;pressure;altitude;pressure_sealevel;temperature;humidity
10474;BME280;5284;50.446;7.904;2023-04-07T00:03:06;98317.66;;;6.83;100.00
10474;BME280;5284;50.446;7.904;2023-04-07T00:08:09;98318.19;;;6.76;100.00
10474;BME280;5284;50.446;7.904;2023-04-07T00:13:12;98311.84;;;6.78;100.00
10474;BME280;5284;50.446;7.904;2023-04-07T00:18:16;98309.28;;;6.77;100.00
10474;BME280;5284;50.446;7.904;2023-04-07T00:23:19;98302.19;;;6.77;100.00
10474;BME280;5284;50.446;7.904;2023-04-07T00:28:22;98298.91;;;6.74;100.00
10474;BME280;5284;50.446;7.904;2023-04-07T00:33:26;98289.28;;;6.73;100.00
10474;BME280;5284;50.446;7.904;2023-04-07T00:38:29;98289.00;;;6.65;100.00
10474;BME280;5284;50.446;7.904;2023-04-07T00:43:32;98280.38;;;6.74;100.00
10474;BME280;5284;50.446;7.904;2023-04-07T00:48:37;98282.06;;;6.75;100.00
10474;BME280;5284;50.446;7.904;2023-04-07T00:53:40;98277.63;;;6.75;100.00
10474;BME280;5284;50.446;7.904;2023-04-07T00:58:43;98270.97;;;6.70;100.00
10474;BME280;5284;50.446;7.904;2023-04-07T01:03:52;98265.91;;;6.67;100.00
10474;BME280;5284;50.446;7.904;2023-04-07T01:09:01;98255.19;;;6.68;100.00
10474;BME280;5284;50.446;7.904;2023-04-07T01:14:08;98251.47;;;6.71;100.00
10474;BME280;5284;50.446;7.904;2023-04-07T01:19:32;98253.28;;;6.70;100.00
10474;BME280;5284;50.446;7.904;2023-04-07T01:24:49;98243.25;;;6.63;100.00
10474;BME280;5284;50.446;7.904;2023-04-07T01:30:01;98246.28;;;6.69;100.00
10474;BME280;5284;50.446;7.904;2023-04-07T01:35:06;98226.66;;;6.72;100.00
10474;BME280;5284;50.446;7.904;2023-04-07T01:40:12;98237.38;;;6.70;100.00
10474;BME280;5284;50.446;7.904;2023-04-07T01:45:17;98229.53;;;6.69;100.00
10474;BME280;5284;50.446;7.904;2023-04-07T01:50:20;98231.00;;;6.73;100.00
10474;BME280;5284;50.446;7.904;2023-04-07T01:55:24;98226.38;;;6.64;100.00
10474;BME280;5284;50.446;7.904;2023-04-07T02:00:37;98227.84;;;6.68;100.00
10474;BME280;5284;50.446;7.904;2023-04-07T02:05:46;98226.28;;;6.65;100.00
10474;BME280;5284;50.446;7.904;2023-04-07T02:10:50;98222.88;;;6.63;100.00
10474;BME280;5284;50.446;7.904;2023-04-07T02:15:55;98217.09;;;6.58;100.00
10474;BME280;5284;50.446;7.904;2023-04-07T02:21:00;98218.16;;;6.56;100.00
10474;BME280;5284;50.446;7.904;2023-04-07T02:26:05;98221.94;;;6.64;100.00
10474;BME280;5284;50.446;7.904;2023-04-07T02:31:09;98213.38;;;6.61;100.00
10474;BME280;5284;50.446;7.904;2023-04-07T02:36:14;98219.31;;;6.64;100.00
10474;BME280;5284;50.446;7.904;2023-04-07T02:41:17;98214.94;;;6.63;100.00
10474;BME280;5284;50.446;7.904;2023-04-07T02:46:21;98209.53;;;6.65;100.00
10474;BME280;5284;50.446;7.904;2023-04-07T02:51:24;98209.50;;;6.54;100.00
10474;BME280;5284;50.446;7.904;2023-04-07T02:56:28;98209.63;;;6.63;100.00
10474;BME280;5284;50.446;7.904;2023-04-07T03:01:33;98210.00;;;6.59;100.00
10474;BME280;5284;50.446;7.904;2023-04-07T03:06:37;98206.16;;;6.63;100.00
10474;BME280;5284;50.446;7.904;2023-04-07T03:11:48;98209.63;;;6.63;100.00
10474;BME280;5284;50.446;7.904;2023-04-07T03:16:54;98202.78;;;6.61;100.00
10474;BME280;5284;50.446;7.904;2023-04-07T03:21:58;98204.00;;;6.68;100.00
10474;BME280;5284;50.446;7.904;2023-04-07T03:27:00;98196.28;;;6.65;100.00
10474;BME280;5284;50.446;7.904;2023-04-07T03:32:14;98196.28;;;6.65;100.00
10474;BME280;5284;50.446;7.904;2023-04-07T03:37:17;98190.25;;;6.63;100.00
10474;BME280;5284;50.446;7.904;2023-04-07T03:42:20;98187.59;;;6.63;100.00
10474;BME280;5284;50.446;7.904;2023-04-07T03:47:27;98186.56;;;6.65;100.00
10474;BME280;5284;50.446;7.904;2023-04-07T03:52:35;98194.50;;;6.65;100.00
10474;BME280;5284;50.446;7.904;2023-04-07T03:57:47;98187.59;;;6.63;100.00
10474;BME280;5284;50.446;7.904;2023-04-07T04:02:52;98186.66;;;6.64;100.00
10474;BME280;5284;50.446;7.904;2023-04-07T04:07:55;98187.13;;;6.58;100.00
10474;BME280;5284;50.446;7.904;2023-04-07T04:12:58;98188.31;;;6.54;100.00
10474;BME280;5284;50.446;7.904;2023-04-07T04:18:03;98188.81;;;6.59;100.00
10474;BME280;5284;50.446;7.904;2023-04-07T04:23:07;98189.53;;;6.61;100.00
10474;BME280;5284;50.446;7.904;2023-04-07T04:28:11;98184.22;;;6.61;100.00
10474;BME280;5284;50.446;7.904;2023-04-07T04:33:16;98182.78;;;6.57;100.00
10474;BME280;5284;50.446;7.904;2023-04-07T04:38:30;98184.47;;;6.58;100.00
10474;BME280;5284;50.446;7.904;2023-04-07T04:44:00;98188.56;;;6.62;100.00
10474;BME280;5284;50.446;7.904;2023-04-07T04:49:05;98197.16;;;6.65;100.00
10474;BME280;5284;50.446;7.904;2023-04-07T04:54:09;98198.84;;;6.66;100.00
10474;BME280;5284;50.446;7.904;2023-04-07T04:59:13;98190.59;;;6.58;100.00
10474;BME280;5284;50.446;7.904;2023-04-07T05:04:30;98198.31;;;6.61;100.00
10474;BME280;5284;50.446;7.904;2023-04-07T05:09:43;98203.59;;;6.61;100.00
10474;BME280;5284;50.446;7.904;2023-04-07T05:14:48;98203.41;;;6.64;100.00
10474;BME280;5284;50.446;7.904;2023-04-07T05:19:53;98211.22;;;6.66;100.00
10474;BME280;5284;50.446;7.904;2023-04-07T05:25:07;98207.59;;;6.67;100.00
10474;BME280;5284;50.446;7.904;2023-04-07T05:30:13;98212.69;;;6.70;100.00
10474;BME280;5284;50.446;7.904;2023-04-07T05:35:18;98210.88;;;6.70;100.00
10474;BME280;5284;50.446;7.904;2023-04-07T05:40:27;98211.63;;;6.72;100.00
10474;BME280;5284;50.446;7.904;2023-04-07T05:45:33;98214.88;;;6.76;100.00
10474;BME280;5284;50.446;7.904;2023-04-07T05:50:38;98215.50;;;6.79;100.00
10474;BME280;5284;50.446;7.904;2023-04-07T05:55:45;98214.28;;;6.83;100.00
10474;BME280;5284;50.446;7.904;2023-04-07T06:01:18;98215.25;;;6.82;100.00
10474;BME280;5284;50.446;7.904;2023-04-07T06:06:23;98224.31;;;6.91;100.00
10474;BME280;5284;50.446;7.904;2023-04-07T06:11:27;98227.47;;;6.96;100.00
10474;BME280;5284;50.446;7.904;2023-04-07T06:16:29;98230.75;;;6.99;100.00
10474;BME280;5284;50.446;7.904;2023-04-07T06:21:34;98228.69;;;7.03;100.00
10474;BME280;5284;50.446;7.904;2023-04-07T06:26:39;98240.03;;;7.05;100.00
10474;BME280;5284;50.446;7.904;2023-04-07T06:31:42;98234.16;;;7.12;100.00
10474;BME280;5284;50.446;7.904;2023-04-07T06:36:47;98237.28;;;7.17;100.00
10474;BME280;5284;50.446;7.904;2023-04-07T06:41:51;98237.91;;;7.21;100.00
10474;BME280;5284;50.446;7.904;2023-04-07T06:46:55;98244.19;;;7.31;100.00
10474;BME280;5284;50.446;7.904;2023-04-07T06:51:59;98241.91;;;7.37;100.00
10474;BME280;5284;50.446;7.904;2023-04-07T06:57:02;98245.53;;;7.36;100.00
10474;BME280;5284;50.446;7.904;2023-04-07T07:02:07;98247.84;;;7.52;100.00
10474;BME280;5284;50.446;7.904;2023-04-07T07:07:13;98254.38;;;7.58;100.00
10474;BME280;5284;50.446;7.904;2023-04-07T07:12:16;98257.38;;;7.65;100.00
10474;BME280;5284;50.446;7.904;2023-04-07T07:17:19;98263.53;;;7.76;100.00
10474;BME280;5284;50.446;7.904;2023-04-07T07:22:23;98266.56;;;7.83;100.00
10474;BME280;5284;50.446;7.904;2023-04-07T07:27:27;98268.97;;;7.97;100.00
10474;BME280;5284;50.446;7.904;2023-04-07T07:32:29;98277.66;;;7.99;100.00
10474;BME280;5284;50.446;7.904;2023-04-07T07:37:34;98283.81;;;8.10;100.00
10474;BME280;5284;50.446;7.904;2023-04-07T07:42:37;98287.44;;;8.09;100.00
10474;BME280;5284;50.446;7.904;2023-04-07T07:47:40;98293.25;;;8.25;100.00
10474;BME280;5284;50.446;7.904;2023-04-07T07:52:45;98292.75;;;8.31;100.00
10474;BME280;5284;50.446;7.904;2023-04-07T07:57:49;98300.00;;;8.40;100.00
10474;BME280;5284;50.446;7.904;2023-04-07T08:02:52;98310.13;;;8.57;100.00
10474;BME280;5284;50.446;7.904;2023-04-07T08:07:57;98312.50;;;8.71;100.00
10474;BME280;5284;50.446;7.904;2023-04-07T08:13:03;98315.63;;;8.76;100.00
10474;BME280;5284;50.446;7.904;2023-04-07T08:18:06;98308.00;;;8.83;100.00
10474;BME280;5284;50.446;7.904;2023-04-07T08:23:11;98324.06;;;8.92;100.00
10474;BME280;5284;50.446;7.904;2023-04-07T08:28:14;98319.53;;;9.04;100.00
10474;BME280;5284;50.446;7.904;2023-04-07T08:33:17;98325.44;;;9.07;100.00
10474;BME280;5284;50.446;7.904;2023-04-07T08:38:21;98319.94;;;9.19;100.00
10474;BME280;5284;50.446;7.904;2023-04-07T08:43:26;98330.03;;;9.05;100.00
10474;BME280;5284;50.446;7.904;2023-04-07T08:48:30;98333.88;;;9.12;100.00
10474;BME280;5284;50.446;7.904;2023-04-07T08:53:40;98330.78;;;9.38;100.00
10474;BME280;5284;50.446;7.904;2023-04-07T08:58:46;98343.59;;;9.33;100.00
10474;BME280;5284;50.446;7.904;2023-04-07T09:03:49;98341.06;;;9.32;100.00
10474;BME280;5284;50.446;7.904;2023-04-07T09:08:54;98341.53;;;9.37;100.00
10474;BME280;5284;50.446;7.904;2023-04-07T09:13:57;98352.84;;;9.18;100.00
10474;BME280;5284;50.446;7.904;2023-04-07T09:19:03;98347.47;;;8.98;100.00
10474;BME280;5284;50.446;7.904;2023-04-07T09:24:19;98350.84;;;9.00;100.00
10474;BME280;5284;50.446;7.904;2023-04-07T09:29:23;98353.63;;;9.09;100.00
10474;BME280;5284;50.446;7.904;2023-04-07T09:34:30;98353.41;;;9.33;100.00
10474;BME280;5284;50.446;7.904;2023-04-07T09:39:47;98355.91;;;9.34;100.00
10474;BME280;5284;50.446;7.904;2023-04-07T09:44:51;98357.94;;;9.42;100.00
10474;BME280;5284;50.446;7.904;2023-04-07T09:49:55;98357.59;;;9.67;100.00
10474;BME280;5284;50.446;7.904;2023-04-07T09:55:01;98363.19;;;9.84;100.00
10474;BME280;5284;50.446;7.904;2023-04-07T10:00:08;98357.31;;;9.70;100.00
10474;BME280;5284;50.446;7.904;2023-04-07T10:05:16;98360.84;;;9.70;100.00
10474;BME280;5284;50.446;7.904;2023-04-07T10:10:23;98363.00;;;9.76;100.00
10474;BME280;5284;50.446;7.904;2023-04-07T10:15:27;98363.03;;;10.27;100.00
10474;BME280;5284;50.446;7.904;2023-04-07T10:20:30;98363.69;;;10.19;100.00
10474;BME280;5284;50.446;7.904;2023-04-07T10:25:35;98369.34;;;10.56;100.00
10474;BME280;5284;50.446;7.904;2023-04-07T10:30:41;98365.16;;;10.63;100.00
10474;BME280;5284;50.446;7.904;2023-04-07T10:36:05;98372.38;;;10.81;100.00
10474;BME280;5284;50.446;7.904;2023-04-07T10:41:33;98372.53;;;10.50;100.00
10474;BME280;5284;50.446;7.904;2023-04-07T10:47:01;98384.88;;;10.51;100.00
10474;BME280;5284;50.446;7.904;2023-04-07T10:52:26;98389.28;;;10.61;100.00
10474;BME280;5284;50.446;7.904;2023-04-07T10:57:30;98387.50;;;10.71;100.00
10474;BME280;5284;50.446;7.904;2023-04-07T11:02:34;98400.09;;;10.60;100.00
10474;BME280;5284;50.446;7.904;2023-04-07T11:07:45;98397.50;;;10.49;100.00
10474;BME280;5284;50.446;7.904;2023-04-07T11:13:03;98397.94;;;10.44;100.00
10474;BME280;5284;50.446;7.904;2023-04-07T11:18:14;98404.19;;;10.34;100.00
10474;BME280;5284;50.446;7.904;2023-04-07T11:23:21;98412.72;;;10.28;100.00
10474;BME280;5284;50.446;7.904;2023-04-07T11:28:27;98412.63;;;10.18;100.00
10474;BME280;5284;50.446;7.904;2023-04-07T11:33:30;98417.25;;;10.16;100.00
10474;BME280;5284;50.446;7.904;2023-04-07T11:38:36;98419.72;;;10.29;100.00
10474;BME280;5284;50.446;7.904;2023-04-07T11:43:41;98418.03;;;10.28;100.00
10474;BME280;5284;50.446;7.904;2023-04-07T11:48:44;98416.03;;;10.80;100.00
10474;BME280;5284;50.446;7.904;2023-04-07T11:53:53;98423.91;;;10.81;100.00
10474;BME280;5284;50.446;7.904;2023-04-07T11:58:58;98429.06;;;10.73;100.00
10474;BME280;5284;50.446;7.904;2023-04-07T12:04:03;98429.69;;;10.96;100.00
10474;BME280;5284;50.446;7.904;2023-04-07T12:09:07;98435.19;;;10.94;100.00
10474;BME280;5284;50.446;7.904;2023-04-07T12:14:12;98446.50;;;11.17;100.00
10474;BME280;5284;50.446;7.904;2023-04-07T12:19:15;98448.53;;;10.94;100.00
10474;BME280;5284;50.446;7.904;2023-04-07T12:24:18;98450.75;;;10.60;100.00
10474;BME280;5284;50.446;7.904;2023-04-07T12:29:23;98453.06;;;10.73;100.00
10474;BME280;5284;50.446;7.904;2023-04-07T12:34:26;98458.00;;;10.78;100.00
10474;BME280;5284;50.446;7.904;2023-04-07T12:39:29;98459.81;;;10.77;100.00
10474;BME280;5284;50.446;7.904;2023-04-07T12:44:33;98462.59;;;10.66;100.00
10474;BME280;5284;50.446;7.904;2023-04-07T12:49:37;98473.53;;;10.63;100.00
10474;BME280;5284;50.446;7.904;2023-04-07T12:54:40;98476.00;;;10.56;100.00
10474;BME280;5284;50.446;7.904;2023-04-07T12:59:44;98473.16;;;10.77;100.00
10474;BME280;5284;50.446;7.904;2023-04-07T13:04:48;98471.38;;;10.87;100.00
10474;BME280;5284;50.446;7.904;2023-04-07T13:09:51;98480.59;;;10.74;100.00
10474;BME280;5284;50.446;7.904;2023-04-07T13:14:56;98487.50;;;10.56;100.00
10474;BME280;5284;50.446;7.904;2023-04-07T13:20:01;98481.88;;;10.79;100.00
10474;BME280;5284;50.446;7.904;2023-04-07T13:25:07;98476.03;;;10.95;100.00
10474;BME280;5284;50.446;7.904;2023-04-07T13:30:13;98486.06;;;11.02;100.00
10474;BME280;5284;50.446;7.904;2023-04-07T13:35:17;98482.19;;;11.16;100.00
10474;BME280;5284;50.446;7.904;2023-04-07T13:40:21;98482.75;;;11.29;100.00
10474;BME280;5284;50.446;7.904;2023-04-07T13:45:25;98491.78;;;11.37;100.00
10474;BME280;5284;50.446;7.904;2023-04-07T13:50:28;98497.41;;;11.34;100.00
10474;BME280;5284;50.446;7.904;2023-04-07T13:55:32;98490.66;;;11.30;100.00
10474;BME280;5284;50.446;7.904;2023-04-07T14:00:36;98487.63;;;11.54;100.00
10474;BME280;5284;50.446;7.904;2023-04-07T14:05:39;98491.13;;;11.45;100.00
10474;BME280;5284;50.446;7.904;2023-04-07T14:10:41;98495.75;;;11.52;100.00
10474;BME280;5284;50.446;7.904;2023-04-07T14:15:46;98492.47;;;11.88;100.00
10474;BME280;5284;50.446;7.904;2023-04-07T14:20:50;98495.69;;;11.82;100.00
10474;BME280;5284;50.446;7.904;2023-04-07T14:25:52;98491.63;;;11.78;100.00
10474;BME280;5284;50.446;7.904;2023-04-07T14:30:56;98500.47;;;12.45;100.00
10474;BME280;5284;50.446;7.904;2023-04-07T14:35:59;98496.66;;;13.12;100.00
10474;BME280;5284;50.446;7.904;2023-04-07T14:41:03;98492.81;;;12.69;100.00
10474;BME280;5284;50.446;7.904;2023-04-07T14:46:12;98493.44;;;12.44;100.00
10474;BME280;5284;50.446;7.904;2023-04-07T14:51:15;98485.59;;;11.86;100.00
10474;BME280;5284;50.446;7.904;2023-04-07T14:56:19;98491.63;;;11.78;100.00
10474;BME280;5284;50.446;7.904;2023-04-07T15:01:24;98500.72;;;11.57;100.00
10474;BME280;5284;50.446;7.904;2023-04-07T15:06:27;98502.88;;;12.10;100.00
10474;BME280;5284;50.446;7.904;2023-04-07T15:11:31;98509.94;;;12.20;100.00
10474;BME280;5284;50.446;7.904;2023-04-07T15:16:35;98506.09;;;12.42;100.00
10474;BME280;5284;50.446;7.904;2023-04-07T15:21:38;98514.41;;;11.82;100.00
10474;BME280;5284;50.446;7.904;2023-04-07T15:26:41;98509.81;;;11.45;100.00
10474;BME280;5284;50.446;7.904;2023-04-07T15:31:46;98509.06;;;11.33;100.00
10474;BME280;5284;50.446;7.904;2023-04-07T15:36:49;98516.09;;;11.34;100.00
10474;BME280;5284;50.446;7.904;2023-04-07T15:41:52;98520.22;;;11.48;100.00
10474;BME280;5284;50.446;7.904;2023-04-07T15:46:56;98524.13;;;11.44;100.00
10474;BME280;5284;50.446;7.904;2023-04-07T15:51:59;98527.41;;;10.87;100.00
10474;BME280;5284;50.446;7.904;2023-04-07T15:57:02;98532.91;;;10.45;100.00
10474;BME280;5284;50.446;7.904;2023-04-07T16:02:06;98535.63;;;10.34;100.00
10474;BME280;5284;50.446;7.904;2023-04-07T16:07:10;98546.00;;;10.37;100.00
10474;BME280;5284;50.446;7.904;2023-04-07T16:12:13;98538.81;;;10.28;100.00
10474;BME280;5284;50.446;7.904;2023-04-07T16:17:18;98540.72;;;10.06;100.00
10474;BME280;5284;50.446;7.904;2023-04-07T16:22:21;98547.03;;;10.05;100.00
10474;BME280;5284;50.446;7.904;2023-04-07T16:27:24;98550.22;;;9.77;100.00
10474;BME280;5284;50.446;7.904;2023-04-07T16:32:28;98550.84;;;9.80;100.00
10474;BME280;5284;50.446;7.904;2023-04-07T16:37:32;98556.31;;;9.68;100.00
10474;BME280;5284;50.446;7.904;2023-04-07T16:42:35;98562.63;;;9.56;100.00
10474;BME280;5284;50.446;7.904;2023-04-07T16:47:39;98570.16;;;9.40;100.00
10474;BME280;5284;50.446;7.904;2023-04-07T16:52:45;98569.19;;;9.30;100.00
10474;BME280;5284;50.446;7.904;2023-04-07T16:57:48;98567.75;;;9.26;100.00
10474;BME280;5284;50.446;7.904;2023-04-07T17:02:52;98577.66;;;9.13;100.00
10474;BME280;5284;50.446;7.904;2023-04-07T17:07:55;98590.94;;;9.02;100.00
10474;BME280;5284;50.446;7.904;2023-04-07T17:12:58;98592.75;;;9.02;100.00
10474;BME280;5284;50.446;7.904;2023-04-07T17:18:02;98596.28;;;9.02;100.00
10474;BME280;5284;50.446;7.904;2023-04-07T17:23:06;98604.97;;;8.93;100.00
10474;BME280;5284;50.446;7.904;2023-04-07T17:28:10;98600.97;;;8.88;100.00
10474;BME280;5284;50.446;7.904;2023-04-07T17:33:15;98607.25;;;8.87;100.00
10474;BME280;5284;50.446;7.904;2023-04-07T17:38:18;98604.19;;;8.80;100.00
10474;BME280;5284;50.446;7.904;2023-04-07T17:43:21;98621.97;;;8.80;100.00
10474;BME280;5284;50.446;7.904;2023-04-07T17:48:25;98629.56;;;8.73;100.00
10474;BME280;5284;50.446;7.904;2023-04-07T17:53:28;98629.31;;;8.65;100.00
10474;BME280;5284;50.446;7.904;2023-04-07T17:58:32;98634.50;;;8.67;100.00
10474;BME280;5284;50.446;7.904;2023-04-07T18:03:38;98635.19;;;8.58;100.00
10474;BME280;5284;50.446;7.904;2023-04-07T18:08:41;98639.69;;;8.57;100.00
10474;BME280;5284;50.446;7.904;2023-04-07T18:13:46;98645.84;;;8.58;100.00
10474;BME280;5284;50.446;7.904;2023-04-07T18:18:51;98652.25;;;8.55;100.00
10474;BME280;5284;50.446;7.904;2023-04-07T18:23:54;98663.84;;;8.54;100.00
10474;BME280;5284;50.446;7.904;2023-04-07T18:28:56;98661.41;;;8.51;100.00
10474;BME280;5284;50.446;7.904;2023-04-07T18:34:01;98666.09;;;8.48;100.00
10474;BME280;5284;50.446;7.904;2023-04-07T18:39:03;98672.72;;;8.42;100.00
10474;BME280;5284;50.446;7.904;2023-04-07T18:44:06;98678.25;;;8.39;100.00
10474;BME280;5284;50.446;7.904;2023-04-07T18:49:11;98680.63;;;8.31;100.00
10474;BME280;5284;50.446;7.904;2023-04-07T18:54:14;98692.03;;;8.21;100.00
10474;BME280;5284;50.446;7.904;2023-04-07T18:59:17;98698.09;;;8.10;100.00
10474;BME280;5284;50.446;7.904;2023-04-07T19:04:22;98696.84;;;8.03;100.00
10474;BME280;5284;50.446;7.904;2023-04-07T19:09:25;98704.53;;;7.95;100.00
10474;BME280;5284;50.446;7.904;2023-04-07T19:14:28;98709.66;;;7.86;100.00
10474;BME280;5284;50.446;7.904;2023-04-07T19:19:33;98718.16;;;7.78;100.00
10474;BME280;5284;50.446;7.904;2023-04-07T19:24:36;98717.00;;;7.70;100.00
10474;BME280;5284;50.446;7.904;2023-04-07T19:29:40;98714.75;;;7.64;100.00
10474;BME280;5284;50.446;7.904;2023-04-07T19:34:45;98725.50;;;7.62;100.00
10474;BME280;5284;50.446;7.904;2023-04-07T19:39:47;98728.25;;;7.61;100.00
10474;BME280;5284;50.446;7.904;2023-04-07T19:45:04;98733.03;;;7.56;100.00
10474;BME280;5284;50.446;7.904;2023-04-07T19:50:10;98739.22;;;7.56;100.00
10474;BME280;5284;50.446;7.904;2023-04-07T19:55:14;98746.22;;;7.57;100.00
10474;BME280;5284;50.446;7.904;2023-04-07T20:00:18;98752.25;;;7.59;100.00
10474;BME280;5284;50.446;7.904;2023-04-07T20:05:25;98760.31;;;7.58;100.00
10474;BME280;5284;50.446;7.904;2023-04-07T20:10:28;98759.69;;;7.54;100.00
10474;BME280;5284;50.446;7.904;2023-04-07T20:15:30;98762.66;;;7.50;100.00
10474;BME280;5284;50.446;7.904;2023-04-07T20:20:34;98766.47;;;7.46;100.00
10474;BME280;5284;50.446;7.904;2023-04-07T20:25:38;98770.19;;;7.44;100.00
10474;BME280;5284;50.446;7.904;2023-04-07T20:30:41;98771.88;;;7.45;100.00
10474;BME280;5284;50.446;7.904;2023-04-07T20:35:46;98779.09;;;7.43;100.00
10474;BME280;5284;50.446;7.904;2023-04-07T20:40:49;98773.06;;;7.41;100.00
10474;BME280;5284;50.446;7.904;2023-04-07T20:45:53;98776.56;;;7.41;100.00
10474;BME280;5284;50.446;7.904;2023-04-07T20:50:58;98772.22;;;7.40;100.00
10474;BME280;5284;50.446;7.904;2023-04-07T20:56:01;98780.25;;;7.39;100.00
10474;BME280;5284;50.446;7.904;2023-04-07T21:01:05;98782.91;;;7.39;100.00
10474;BME280;5284;50.446;7.904;2023-04-07T21:06:09;98774.00;;;7.40;100.00
10474;BME280;5284;50.446;7.904;2023-04-07T21:11:12;98783.78;;;7.39;100.00
10474;BME280;5284;50.446;7.904;2023-04-07T21:16:15;98781.13;;;7.39;100.00
10474;BME280;5284;50.446;7.904;2023-04-07T21:21:19;98775.91;;;7.38;100.00
10474;BME280;5284;50.446;7.904;2023-04-07T21:26:22;98774.97;;;7.39;100.00
10474;BME280;5284;50.446;7.904;2023-04-07T21:31:25;98781.13;;;7.39;100.00
10474;BME280;5284;50.446;7.904;2023-04-07T21:36:29;98781.22;;;7.38;100.00
10474;BME280;5284;50.446;7.904;2023-04-07T21:41:33;98784.81;;;7.37;100.00
10474;BME280;5284;50.446;7.904;2023-04-07T21:46:36;98774.34;;;7.35;100.00
10474;BME280;5284;50.446;7.904;2023-04-07T21:51:40;98787.59;;;7.35;100.00
10474;BME280;5284;50.446;7.904;2023-04-07T21:56:43;98784.00;;;7.36;100.00
10474;BME280;5284;50.446;7.904;2023-04-07T22:01:49;98794.59;;;7.36;100.00
10474;BME280;5284;50.446;7.904;2023-04-07T22:06:54;98794.47;;;7.38;100.00
10474;BME280;5284;50.446;7.904;2023-04-07T22:11:58;98802.22;;;7.41;100.00
10474;BME280;5284;50.446;7.904;2023-04-07T22:17:01;98792.56;;;7.40;100.00
10474;BME280;5284;50.446;7.904;2023-04-07T22:22:06;98802.22;;;7.41;100.00
10474;BME280;5284;50.446;7.904;2023-04-07T22:27:08;98795.00;;;7.43;100.00
10474;BME280;5284;50.446;7.904;2023-04-07T22:32:12;98809.16;;;7.43;100.00
10474;BME280;5284;50.446;7.904;2023-04-07T22:37:16;98809.88;;;7.45;100.00
10474;BME280;5284;50.446;7.904;2023-04-07T22:42:19;98819.41;;;7.47;100.00
10474;BME280;5284;50.446;7.904;2023-04-07T22:47:22;98818.69;;;7.46;100.00
10474;BME280;5284;50.446;7.904;2023-04-07T22:52:26;98820.38;;;7.47;100.00
10474;BME280;5284;50.446;7.904;2023-04-07T22:57:29;98820.38;;;7.47;100.00
10474;BME280;5284;50.446;7.904;2023-04-07T23:02:32;98827.19;;;7.51;100.00
10474;BME280;5284;50.446;7.904;2023-04-07T23:07:37;98827.19;;;7.51;100.00
10474;BME280;5284;50.446;7.904;2023-04-07T23:12:39;98828.16;;;7.50;100.00
10474;BME280;5284;50.446;7.904;2023-04-07T23:17:42;98830.59;;;7.53;100.00
10474;BME280;5284;50.446;7.904;2023-04-07T23:22:47;98838.56;;;7.53;100.00
10474;BME280;5284;50.446;7.904;2023-04-07T23:27:50;98846.41;;;7.54;100.00
10474;BME280;5284;50.446;7.904;2023-04-07T23:32:52;98848.22;;;7.53;100.00
10474;BME280;5284;50.446;7.904;2023-04-07T23:37:57;98841.22;;;7.53;100.00
10474;BME280;5284;50.446;7.904;2023-04-07T23:43:00;98840.56;;;7.49;100.00
10474;BME280;5284;50.446;7.904;2023-04-07T23:48:02;98848.53;;;7.49;100.00
10474;BME280;5284;50.446;7.904;2023-04-07T23:53:06;98844.16;;;7.48;100.00
10474;BME280;5284;50.446;7.904;2023-04-07T23:58:09;98854.03;;;7.46;100.00
